Flight Track Log - Related Links

Times and Time Zones

All times are in EDT time to prevent confusion due to time zone crossing. See the FLG3800 flight status page for this flight to view local times or setup timezone preferences in your user account.


Time Position Orientation Groundspeed Altitude Reporting Facility
EDT Latitude Longitude Course Direction KTS MPH feet Rate Location/Type
Tue 01:13:05 PM 42.2106 -83.3650 191° South 158 182 1,300  Level Cleveland Center
Tue 01:14:12 PM 42.1547 -83.3797 191° South 201 231 4,500 2,529 Climbing Cleveland Center
Tue 01:15:06 PM 42.0953 -83.3811 181° South 233 268 6,400 2,361 Climbing Cleveland Center
Tue 01:15:13 PM 42.0833 -83.3808 179° South 273 314 6,900 3,871 Climbing Cleveland Center
Tue 01:16:08 PM 42.0214 -83.3731 175° South 262 302 10,400 2,615 Climbing Cleveland Center
Tue 01:17:10 PM 41.9447 -83.3653 176° South 269 310 12,000 1,707 Climbing Cleveland Center
Tue 01:18:11 PM 41.8539 -83.3569 176° South 320 368 13,900 1,951 Climbing Cleveland Center
Tue 01:19:13 PM 41.7653 -83.3858 194° South 327 376 16,000 2,000 Climbing Cleveland Center
Tue 01:20:14 PM 41.6769 -83.4244 198° South 329 379 18,000 1,756 Climbing Cleveland Center
Tue 01:21:16 PM 41.5867 -83.4669 199° South 338 389 19,600 1,306 Climbing Cleveland Center
Tue 01:22:18 PM 41.4936 -83.5086 199° South 350 403 20,700 1,122 Climbing Cleveland Center
Tue 01:23:19 PM 41.3769 -83.5606 198° South 367 422 21,900 634 Climbing Cleveland Center
Tue 01:24:21 PM 41.2750 -83.6061 199° South 385 443 22,000 49 Climbing Cleveland Center
Tue 01:25:22 PM 41.1678 -83.6539 199° South 403 464 22,000  Level Cleveland Center
Tue 01:26:24 PM 41.0489 -83.7069 199° South 412 474 22,000  Level Cleveland Center
Tue 01:27:25 PM 40.9406 -83.7569 199° South 413 475 22,000  Level Cleveland Center
Tue 01:28:27 PM 40.8325 -83.8036 198° South 412 474 22,000  Level Cleveland Center
Tue 01:29:29 PM 40.7247 -83.8517 199° South 412 474 22,000  Level Cleveland Center
Tue 01:30:30 PM 40.6150 -83.8997 198° South 413 475 22,000  Level Cleveland Center
Tue 01:31:32 PM 40.5075 -83.9456 198° South 412 474 22,000  Level Cleveland Center
Tue 01:32:34 PM 40.3983 -83.9944 199° South 412 474 22,000  Level Cleveland Center
Tue 01:33:35 PM 40.2672 -84.0514 198° South 413 475 22,000  Level Cleveland Center
Tue 01:34:37 PM 40.1628 -84.1086 203° Southwest 413 475 22,000  Level Cleveland Center
Tue 01:35:39 PM 40.0558 -84.1647 202° Southwest 413 475 22,000  Level Cleveland Center
Tue 01:36:40 PM 39.9503 -84.2203 202° Southwest 413 475 22,000  Level Cleveland Center
Tue 01:37:42 PM 39.8439 -84.2758 202° Southwest 413 475 22,000  Level Cleveland Center
Tue 01:38:58 PM 39.6950 -84.3531 202° Southwest 413 475 22,000  Level Indianapolis Center
Tue 01:40:00 PM 39.5883 -84.4086 202° Southwest 414 476 22,000  Level Indianapolis Center
Tue 01:41:01 PM 39.4822 -84.4644 202° Southwest 414 476 22,000  Level Indianapolis Center
Tue 01:42:03 PM 39.3756 -84.5183 201° Southwest 413 475 22,000  Level Indianapolis Center
Tue 01:43:05 PM 39.2686 -84.5742 202° Southwest 414 476 22,000 -98 Level Indianapolis Center
Tue 01:44:06 PM 39.1617 -84.6278 201° Southwest 414 476 21,800 -1,158 Descending Indianapolis Center
Tue 01:44:59 PM 39.0500 -84.6833 201° Southwest 398 458 19,800 -2,071 Descending Cincinnati TRACON
Tue 01:45:59 PM 38.9667 -84.7500 212° Southwest 380 437 17,900 -1,727 Descending Cincinnati TRACON
Tue 01:47:11 PM 38.8706 -84.8447 218° Southwest 384 442 16,000 -1,669 Descending Indianapolis Center
Tue 01:48:12 PM 38.7903 -84.9225 217° Southwest 374 430 14,200 -1,756 Descending Indianapolis Center
Tue 01:49:14 PM 38.7133 -84.9944 216° Southwest 362 417 12,400 -1,707 Descending Indianapolis Center
Tue 01:50:15 PM 38.6156 -84.9703 169° South 356 410 10,700 -1,171 Descending Indianapolis Center
Tue 01:51:17 PM 38.5142 -84.9086 155° Southeast 349 402 10,000 -387 Descending Indianapolis Center
Tue 01:52:19 PM 38.4375 -84.8564 152° Southeast 324 373 9,900 -488 Descending Indianapolis Center
Tue 01:53:20 PM 38.4136 -84.7533 106° East 297 342 9,000 -1,122 Descending Indianapolis Center
Tue 01:54:22 PM 38.3886 -84.6561 108° East 295 339 7,600 -1,415 Descending Indianapolis Center
Tue 01:55:23 PM 38.3653 -84.5606 107° East 289 333 6,100 -1,122 Descending Indianapolis Center
Tue 01:56:25 PM 38.3425 -84.4667 107° East 283 326 5,300 -1,073 Descending Indianapolis Center
Tue 01:57:26 PM 38.3031 -84.3925 124° Southeast 268 308 3,900 -1,024 Descending Indianapolis Center
Tue 01:58:28 PM 38.2300 -84.3847 175° South 239 275 3,200 -339 Descending Indianapolis Center
Tue 01:59:30 PM 38.1919 -84.4322 224° Southwest 209 241 3,200  Level Indianapolis Center
Tue 02:00:31 PM 38.1525 -84.4761 221° Southwest 196 226 3,200 -49 Level Indianapolis Center
Tue 02:01:33 PM 38.1150 -84.5183 222° Southwest 191 220 3,100 -390 Descending Indianapolis Center
Tue 02:02:34 PM 38.0864 -84.5497 221° Southwest 171 197 2,400 -537 Descending Indianapolis Center
Tue 02:03:36 PM 38.0542 -84.5867 222° Southwest 165 190 2,000 -387 Descending Indianapolis Center
Tue 02:05:00 PM 38.0368 -84.6086 297° West  Level Estimated

Login

Don't have an account? Register now (free) for customized features, flight alerts, and more!